Time;durP1;ratioP1;P1;durP2;ratioP2;P2;SDS_P1;SDS_P2;PMS_P1;PMS_P2;Temp;Humidity;BMP_temperature;BMP_pressure;BME280_temperature;BME280_humidity;BME280_pressure;Samples;Min_cycle;Max_cycle;Signal;HPM_P1;HPM_P2
2022/10/20 00:00:54;;;;;;;6.55;5.50;;;;;;;;;;4989905;28;100545;-78
2022/10/20 00:03:21;;;;;;;11.05;7.03;;;;;;;;;;4991354;28;98470;-79
2022/10/20 00:05:47;;;;;;;12.18;6.55;;;;;;;;;;4990944;28;99960;-78
2022/10/20 00:08:14;;;;;;;10.57;6.40;;;;;;;;;;4990085;28;100357;-78
2022/10/20 00:10:40;;;;;;;8.45;5.90;;;;;;;;;;4991667;28;98668;-78
2022/10/20 00:13:07;;;;;;;9.32;6.75;;;;;;;;;;4993074;28;102372;-78
2022/10/20 00:15:33;;;;;;;8.45;6.45;;;;;;;;;;4992119;28;97713;-78
2022/10/20 00:17:59;;;;;;;11.82;6.55;;;;;;;;;;4991138;28;99423;-79
2022/10/20 00:20:26;;;;;;;9.05;6.55;;;;;;;;;;4989440;28;100305;-79
2022/10/20 00:22:52;;;;;;;8.55;7.20;;;;;;;;;;4989940;28;99416;-79
2022/10/20 00:25:18;;;;;;;8.73;7.63;;;;;;;;;;4990966;28;100639;-79
2022/10/20 00:27:45;;;;;;;9.27;7.07;;;;;;;;;;4990102;28;100303;-79
2022/10/20 00:30:11;;;;;;;8.40;6.97;;;;;;;;;;4990849;28;98575;-79
2022/10/20 00:32:37;;;;;;;9.10;6.68;;;;;;;;;;4990673;28;99890;-79
2022/10/20 00:35:04;;;;;;;7.93;6.95;;;;;;;;;;4992868;28;99260;-79
2022/10/20 00:37:30;;;;;;;9.05;7.13;;;;;;;;;;4990938;28;99988;-78
2022/10/20 00:39:57;;;;;;;8.13;7.22;;;;;;;;;;4990250;28;99716;-78
2022/10/20 00:42:24;;;;;;;8.38;7.15;;;;;;;;;;4989941;28;98446;-78
2022/10/20 00:45:01;;;;;;;12.48;7.43;;;;;;;;;;4990999;28;99965;-79
2022/10/20 00:47:27;;;;;;;7.05;6.35;;;;;;;;;;4990132;28;100884;-79
2022/10/20 00:49:55;;;;;;;12.48;7.05;;;;;;;;;;4989306;28;98915;-79
2022/10/20 00:52:21;;;;;;;9.85;7.20;;;;;;;;;;4989982;28;99989;-79
2022/10/20 00:54:48;;;;;;;9.25;7.22;;;;;;;;;;4989919;28;100319;-79
2022/10/20 00:57:16;;;;;;;11.05;7.65;;;;;;;;;;4993393;28;98509;-79
2022/10/20 00:59:43;;;;;;;11.35;7.03;;;;;;;;;;4990070;28;100210;-79
2022/10/20 01:02:09;;;;;;;9.13;7.28;;;;;;;;;;4990125;28;99551;-78
2022/10/20 01:04:35;;;;;;;9.13;6.72;;;;;;;;;;4993426;28;99860;-78
2022/10/20 01:07:03;;;;;;;9.85;7.65;;;;;;;;;;4993262;28;99476;-78
2022/10/20 01:09:29;;;;;;;15.48;8.38;;;;;;;;;;4992121;28;98892;-78
2022/10/20 01:12:03;;;;;;;15.65;8.27;;;;;;;;;;4993429;28;99994;-78
2022/10/20 01:14:42;;;;;;;7.93;7.00;;;;;;;;;;4993668;28;100085;-79
2022/10/20 01:17:14;;;;;;;9.05;8.05;;;;;;;;;;4995387;28;98461;-80
2022/10/20 01:19:59;;;;;;;10.90;7.28;;;;;;;;;;4993496;28;100759;-79
2022/10/20 01:22:26;;;;;;;8.35;7.63;;;;;;;;;;4993482;28;98469;-79
2022/10/20 01:25:10;;;;;;;12.40;7.68;;;;;;;;;;4992622;28;99099;-80
2022/10/20 01:27:38;;;;;;;13.73;8.52;;;;;;;;;;4993261;28;100314;-79
2022/10/20 01:30:16;;;;;;;9.05;8.10;;;;;;;;;;4993740;28;97755;-79
2022/10/20 01:32:42;;;;;;;11.85;8.68;;;;;;;;;;4993692;28;98931;-79
2022/10/20 01:35:24;;;;;;;13.20;8.77;;;;;;;;;;4993565;28;100289;-79
2022/10/20 01:37:52;;;;;;;12.73;7.65;;;;;;;;;;4992052;28;99238;-80
2022/10/20 01:40:30;;;;;;;8.65;7.82;;;;;;;;;;4996322;28;100554;-78
2022/10/20 01:43:00;;;;;;;11.32;8.32;;;;;;;;;;4993585;28;98445;-79
2022/10/20 01:45:29;;;;;;;9.20;7.72;;;;;;;;;;4992804;28;100178;-78
2022/10/20 01:47:56;;;;;;;18.27;8.48;;;;;;;;;;4992639;28;100302;-78
2022/10/20 01:50:23;;;;;;;12.20;8.63;;;;;;;;;;4992936;28;98468;-78
2022/10/20 01:52:53;;;;;;;11.82;8.73;;;;;;;;;;4998479;28;99540;-79
2022/10/20 01:55:20;;;;;;;9.68;8.05;;;;;;;;;;5011013;28;100410;-78
2022/10/20 01:57:54;;;;;;;16.65;9.23;;;;;;;;;;4993132;28;98923;-79
2022/10/20 02:00:21;;;;;;;9.57;8.48;;;;;;;;;;4992458;28;99145;-78
2022/10/20 02:03:10;;;;;;;12.27;9.60;;;;;;;;;;4995719;28;100665;-78
2022/10/20 02:05:45;;;;;;;12.80;8.82;;;;;;;;;;4992342;28;100729;-77
2022/10/20 02:08:15;;;;;;;9.48;8.57;;;;;;;;;;4992840;28;100222;-78
2022/10/20 02:10:46;;;;;;;9.90;9.07;;;;;;;;;;5006624;28;98447;-78
2022/10/20 02:13:13;;;;;;;10.13;7.13;;;;;;;;;;5012375;28;99976;-78
2022/10/20 02:15:41;;;;;;;9.30;8.40;;;;;;;;;;5011374;28;100218;-78
2022/10/20 02:18:08;;;;;;;10.40;8.80;;;;;;;;;;5012773;28;98488;-78
2022/10/20 02:20:34;;;;;;;13.00;9.07;;;;;;;;;;5000536;28;100074;-78
2022/10/20 02:23:03;;;;;;;9.35;8.45;;;;;;;;;;4991979;28;100200;-78
2022/10/20 02:25:31;;;;;;;12.20;10.43;;;;;;;;;;4996376;28;98889;-78
2022/10/20 02:27:58;;;;;;;13.48;9.52;;;;;;;;;;4990663;28;101076;-78
2022/10/20 02:30:25;;;;;;;13.05;9.45;;;;;;;;;;4992447;28;98450;-79
2022/10/20 02:32:51;;;;;;;12.15;9.27;;;;;;;;;;4992472;28;99854;-79
2022/10/20 02:35:24;;;;;;;11.68;10.52;;;;;;;;;;4991603;28;100294;-79
2022/10/20 02:37:51;;;;;;;13.88;10.50;;;;;;;;;;4991622;28;98411;-79
2022/10/20 02:40:17;;;;;;;14.70;9.40;;;;;;;;;;4991834;28;99000;-79
2022/10/20 02:42:43;;;;;;;13.25;9.57;;;;;;;;;;4991530;28;99462;-79
2022/10/20 02:45:10;;;;;;;14.23;10.25;;;;;;;;;;4993514;28;97813;-80
2022/10/20 02:47:37;;;;;;;12.05;9.23;;;;;;;;;;4994389;28;99422;-79
2022/10/20 02:50:05;;;;;;;11.35;10.25;;;;;;;;;;4991622;28;98555;-79
2022/10/20 02:52:32;;;;;;;11.10;9.90;;;;;;;;;;4991286;28;100196;-79
2022/10/20 02:54:58;;;;;;;9.68;8.50;;;;;;;;;;4991003;28;100127;-79
2022/10/20 02:57:25;;;;;;;17.55;10.82;;;;;;;;;;4992241;28;98455;-79
2022/10/20 02:59:51;;;;;;;10.50;9.50;;;;;;;;;;4991316;28;100502;-79
2022/10/20 03:02:18;;;;;;;12.32;10.35;;;;;;;;;;4991993;28;99412;-79
2022/10/20 03:04:44;;;;;;;14.18;9.85;;;;;;;;;;4991482;28;98454;-79
2022/10/20 03:07:10;;;;;;;15.40;9.77;;;;;;;;;;4992407;28;99193;-79
2022/10/20 03:09:37;;;;;;;10.88;9.85;;;;;;;;;;4994656;28;99468;-79
2022/10/20 03:12:03;;;;;;;15.15;10.82;;;;;;;;;;4990452;28;98467;-79
2022/10/20 03:14:29;;;;;;;12.55;9.50;;;;;;;;;;4991131;28;100167;-79
2022/10/20 03:16:56;;;;;;;10.35;8.13;;;;;;;;;;4989597;28;99446;-79
2022/10/20 03:19:22;;;;;;;12.50;9.30;;;;;;;;;;5007373;28;100713;-78
2022/10/20 03:21:48;;;;;;;15.98;9.80;;;;;;;;;;4990906;28;100366;-79
2022/10/20 03:24:15;;;;;;;10.88;9.40;;;;;;;;;;4991042;28;98359;-79
2022/10/20 03:26:41;;;;;;;11.32;10.13;;;;;;;;;;4991252;28;100154;-79
2022/10/20 03:29:07;;;;;;;13.20;9.55;;;;;;;;;;4993957;28;100219;-79
2022/10/20 03:31:34;;;;;;;17.48;10.15;;;;;;;;;;4990752;28;99902;-79
2022/10/20 03:34:00;;;;;;;13.43;9.40;;;;;;;;;;4990912;28;98760;-79
2022/10/20 03:36:27;;;;;;;12.43;9.50;;;;;;;;;;4992025;28;98618;-79
2022/10/20 03:38:53;;;;;;;13.70;9.75;;;;;;;;;;4990670;28;100045;-79
2022/10/20 03:41:19;;;;;;;12.82;9.15;;;;;;;;;;4990615;28;101287;-78
2022/10/20 03:43:45;;;;;;;11.65;9.48;;;;;;;;;;4991364;28;98500;-78
2022/10/20 03:46:12;;;;;;;12.35;9.77;;;;;;;;;;4991003;28;100068;-78
2022/10/20 03:48:38;;;;;;;13.18;9.73;;;;;;;;;;4991120;28;100262;-78
2022/10/20 03:51:05;;;;;;;11.65;10.02;;;;;;;;;;4994226;28;98469;-78
2022/10/20 03:53:32;;;;;;;14.45;9.77;;;;;;;;;;4989704;28;100242;-78
2022/10/20 03:55:58;;;;;;;12.95;9.25;;;;;;;;;;4991041;28;98829;-78
2022/10/20 03:58:24;;;;;;;12.30;9.85;;;;;;;;;;4991020;28;100342;-78
2022/10/20 04:00:51;;;;;;;14.23;9.85;;;;;;;;;;4990858;28;99652;-78
2022/10/20 04:03:18;;;;;;;10.65;9.70;;;;;;;;;;4990433;28;98472;-78
2022/10/20 04:05:45;;;;;;;10.35;9.30;;;;;;;;;;4989384;28;99960;-78
2022/10/20 04:08:11;;;;;;;9.88;8.98;;;;;;;;;;4991586;28;100293;-78
2022/10/20 04:10:37;;;;;;;11.38;9.13;;;;;;;;;;5011294;28;98477;-78
2022/10/20 04:13:04;;;;;;;13.60;10.25;;;;;;;;;;5013083;28;99955;-78
2022/10/20 04:15:30;;;;;;;11.45;8.82;;;;;;;;;;5010488;28;98415;-77
2022/10/20 04:17:56;;;;;;;13.77;9.68;;;;;;;;;;5010842;28;100140;-78
2022/10/20 04:20:23;;;;;;;12.20;10.50;;;;;;;;;;4995411;28;100736;-78
2022/10/20 04:22:49;;;;;;;10.57;9.57;;;;;;;;;;4989495;28;98869;-78
2022/10/20 04:25:15;;;;;;;13.70;10.15;;;;;;;;;;4991515;28;99298;-78
2022/10/20 04:27:42;;;;;;;14.20;10.43;;;;;;;;;;4989055;28;100673;-78
2022/10/20 04:30:09;;;;;;;10.43;8.00;;;;;;;;;;4989308;28;99264;-78
2022/10/20 04:32:35;;;;;;;14.65;9.65;;;;;;;;;;4990777;28;101016;-78
2022/10/20 04:35:01;;;;;;;15.43;10.18;;;;;;;;;;4992878;28;100156;-78
2022/10/20 04:37:28;;;;;;;15.27;12.10;;;;;;;;;;4989544;28;99329;-78
2022/10/20 04:39:56;;;;;;;11.00;9.82;;;;;;;;;;4988809;28;98780;-78
2022/10/20 04:42:23;;;;;;;11.25;10.23;;;;;;;;;;4990320;28;98551;-79
2022/10/20 04:44:49;;;;;;;15.30;10.27;;;;;;;;;;4989811;28;99173;-78
2022/10/20 04:47:17;;;;;;;11.95;9.55;;;;;;;;;;4989459;28;99529;-78
2022/10/20 04:49:44;;;;;;;11.55;9.77;;;;;;;;;;4990673;28;98633;-78
2022/10/20 04:52:10;;;;;;;12.25;10.15;;;;;;;;;;4990378;28;99949;-78
2022/10/20 04:54:37;;;;;;;13.70;10.52;;;;;;;;;;4988402;28;100274;-77
2022/10/20 04:57:05;;;;;;;11.90;9.80;;;;;;;;;;4992851;28;98515;-78
2022/10/20 04:59:31;;;;;;;15.18;10.18;;;;;;;;;;4993903;28;100258;-78
2022/10/20 05:01:57;;;;;;;11.45;10.25;;;;;;;;;;4997113;28;98544;-78
2022/10/20 05:04:24;;;;;;;10.70;9.63;;;;;;;;;;4990076;28;100476;-78
2022/10/20 05:06:50;;;;;;;13.25;10.48;;;;;;;;;;4989681;28;100337;-78
2022/10/20 05:09:16;;;;;;;11.10;9.90;;;;;;;;;;4989070;28;98523;-78
2022/10/20 05:11:43;;;;;;;12.88;10.70;;;;;;;;;;4991018;28;100089;-78
2022/10/20 05:14:09;;;;;;;15.35;11.13;;;;;;;;;;4989540;28;100213;-78
2022/10/20 05:16:35;;;;;;;16.80;10.68;;;;;;;;;;4993128;28;98985;-78
2022/10/20 05:19:02;;;;;;;14.43;10.80;;;;;;;;;;5011560;28;99252;-78
2022/10/20 05:21:29;;;;;;;13.70;11.43;;;;;;;;;;5009621;28;98503;-78
2022/10/20 05:23:56;;;;;;;11.82;9.88;;;;;;;;;;4996537;28;100094;-78
2022/10/20 05:26:23;;;;;;;20.55;10.38;;;;;;;;;;4989939;28;100149;-78
2022/10/20 05:28:50;;;;;;;22.55;10.70;;;;;;;;;;4989400;28;98799;-78
2022/10/20 05:31:18;;;;;;;20.75;11.32;;;;;;;;;;4988560;28;100101;-78
2022/10/20 05:33:45;;;;;;;18.02;12.07;;;;;;;;;;4988932;28;99497;-78
2022/10/20 05:36:13;;;;;;;14.07;11.52;;;;;;;;;;4990110;28;97648;-78
2022/10/20 05:38:46;;;;;;;17.52;12.70;;;;;;;;;;4991672;28;99409;-78
2022/10/20 05:41:15;;;;;;;13.65;10.93;;;;;;;;;;4989494;28;98526;-78
2022/10/20 05:43:41;;;;;;;12.07;10.93;;;;;;;;;;4986745;28;101233;-78
2022/10/20 05:46:08;;;;;;;25.67;12.30;;;;;;;;;;4988789;28;100434;-78
2022/10/20 05:48:34;;;;;;;14.40;10.98;;;;;;;;;;4989344;28;98572;-78
2022/10/20 05:51:15;;;;;;;13.80;10.35;;;;;;;;;;4991921;28;99918;-78
2022/10/20 05:53:41;;;;;;;13.98;11.60;;;;;;;;;;4991502;28;100350;-78
2022/10/20 05:56:09;;;;;;;15.95;11.52;;;;;;;;;;4992169;28;98645;-78
2022/10/20 05:58:35;;;;;;;18.33;10.88;;;;;;;;;;4992031;28;99927;-78
2022/10/20 06:01:08;;;;;;;20.75;12.20;;;;;;;;;;4992135;28;99543;-78
2022/10/20 06:03:35;;;;;;;15.65;11.90;;;;;;;;;;4987965;28;99354;-77
2022/10/20 06:06:02;;;;;;;13.30;11.35;;;;;;;;;;4990405;28;100296;-78
2022/10/20 06:08:30;;;;;;;17.40;12.00;;;;;;;;;;4979799;28;99276;-78
2022/10/20 06:10:56;;;;;;;13.43;11.02;;;;;;;;;;4988911;28;100802;-79
2022/10/20 06:13:22;;;;;;;12.82;11.18;;;;;;;;;;4989215;28;100586;-79
2022/10/20 06:15:49;;;;;;;22.60;13.43;;;;;;;;;;4992361;28;100149;-79
2022/10/20 06:18:15;;;;;;;19.58;12.02;;;;;;;;;;4990278;28;99963;-78
2022/10/20 06:20:41;;;;;;;13.95;11.27;;;;;;;;;;4990846;28;100076;-78
2022/10/20 06:23:08;;;;;;;15.75;12.10;;;;;;;;;;4993929;28;98557;-78
2022/10/20 06:25:34;;;;;;;15.68;12.25;;;;;;;;;;4991228;28;99482;-77
2022/10/20 06:28:00;;;;;;;19.55;12.10;;;;;;;;;;4990015;28;99082;-77
2022/10/20 06:30:27;;;;;;;29.45;11.68;;;;;;;;;;4991464;28;100012;-79
2022/10/20 06:32:53;;;;;;;14.30;12.43;;;;;;;;;;4988891;28;101016;-77
2022/10/20 06:35:20;;;;;;;17.48;11.50;;;;;;;;;;4985038;28;98691;-78
2022/10/20 06:37:46;;;;;;;16.38;12.25;;;;;;;;;;4972936;28;99912;-78
2022/10/20 06:40:12;;;;;;;14.40;11.93;;;;;;;;;;4989494;28;101306;-78
2022/10/20 06:42:40;;;;;;;15.98;12.52;;;;;;;;;;4991502;28;98576;-78
2022/10/20 06:45:09;;;;;;;16.92;11.32;;;;;;;;;;4993457;28;99258;-78
2022/10/20 06:47:38;;;;;;;17.65;11.75;;;;;;;;;;4990125;28;98649;-78
2022/10/20 06:50:05;;;;;;;14.63;11.93;;;;;;;;;;4989616;28;100728;-78
2022/10/20 06:52:32;;;;;;;17.88;11.48;;;;;;;;;;4990740;28;100459;-78
2022/10/20 06:54:58;;;;;;;23.63;12.15;;;;;;;;;;4990575;28;98542;-78
2022/10/20 06:57:25;;;;;;;14.13;10.75;;;;;;;;;;4991205;28;100084;-78
2022/10/20 06:59:51;;;;;;;16.45;12.55;;;;;;;;;;4987571;28;100148;-78
2022/10/20 07:02:17;;;;;;;13.80;11.93;;;;;;;;;;4987113;28;100061;-77
2022/10/20 07:04:44;;;;;;;14.65;13.23;;;;;;;;;;4987408;28;100042;-78
2022/10/20 07:07:10;;;;;;;18.02;12.80;;;;;;;;;;4993508;28;100353;-78
2022/10/20 07:09:36;;;;;;;22.35;12.77;;;;;;;;;;4989373;28;99118;-78
2022/10/20 07:12:03;;;;;;;15.63;10.85;;;;;;;;;;4990707;28;100710;-77
2022/10/20 07:14:29;;;;;;;15.10;12.05;;;;;;;;;;4991852;28;97816;-78
2022/10/20 07:16:57;;;;;;;15.93;12.07;;;;;;;;;;4990189;28;99312;-78
2022/10/20 07:19:24;;;;;;;14.75;12.40;;;;;;;;;;4983584;28;100288;-78
2022/10/20 07:21:50;;;;;;;20.58;11.85;;;;;;;;;;4985060;28;101219;-78
2022/10/20 07:24:16;;;;;;;19.30;12.57;;;;;;;;;;5007832;28;100541;-78
2022/10/20 07:26:43;;;;;;;14.02;10.23;;;;;;;;;;5009925;28;100127;-78
2022/10/20 07:29:10;;;;;;;16.65;11.82;;;;;;;;;;5002791;28;98690;-78
2022/10/20 07:31:38;;;;;;;13.13;11.77;;;;;;;;;;5010435;28;100117;-78
2022/10/20 07:34:05;;;;;;;19.08;12.48;;;;;;;;;;5009744;28;100164;-78
2022/10/20 07:36:45;;;;;;;17.58;12.27;;;;;;;;;;4971776;28;99236;-78
2022/10/20 07:39:12;;;;;;;15.88;12.80;;;;;;;;;;4988587;28;99542;-78
2022/10/20 07:41:38;;;;;;;20.50;13.38;;;;;;;;;;4979773;28;100206;-78
2022/10/20 07:44:05;;;;;;;17.58;12.07;;;;;;;;;;4988498;28;99818;-78
2022/10/20 07:46:32;;;;;;;14.15;11.57;;;;;;;;;;4990770;28;101049;-77
2022/10/20 07:48:58;;;;;;;18.20;12.30;;;;;;;;;;4993866;28;98551;-77
2022/10/20 07:51:44;;;;;;;16.02;11.10;;;;;;;;;;4991313;28;99314;-78
2022/10/20 07:54:11;;;;;;;14.40;11.50;;;;;;;;;;4986721;28;98598;-78
2022/10/20 07:56:42;;;;;;;13.15;11.20;;;;;;;;;;4991422;28;99182;-79
2022/10/20 07:59:10;;;;;;;15.95;11.80;;;;;;;;;;4988488;28;100281;-78
2022/10/20 08:01:37;;;;;;;14.63;11.85;;;;;;;;;;4992731;28;98613;-78
2022/10/20 08:04:03;;;;;;;13.02;11.35;;;;;;;;;;4994839;28;99871;-78
2022/10/20 08:06:30;;;;;;;16.25;12.90;;;;;;;;;;4988851;28;100385;-78
2022/10/20 08:08:56;;;;;;;12.48;11.02;;;;;;;;;;4989325;28;98505;-78
2022/10/20 08:11:23;;;;;;;10.70;9.73;;;;;;;;;;4996557;28;100637;-78
2022/10/20 08:13:49;;;;;;;11.48;10.35;;;;;;;;;;4996099;28;98573;-78
2022/10/20 08:16:17;;;;;;;20.20;12.25;;;;;;;;;;4981648;28;100034;-78
2022/10/20 08:18:56;;;;;;;12.27;9.77;;;;;;;;;;4983013;28;99696;-78
2022/10/20 08:21:37;;;;;;;14.75;11.93;;;;;;;;;;4987860;28;100321;-78
2022/10/20 08:24:04;;;;;;;13.13;11.10;;;;;;;;;;4986293;28;101166;-77
2022/10/20 08:26:30;;;;;;;11.98;10.77;;;;;;;;;;4981901;28;99719;-78
2022/10/20 08:28:57;;;;;;;13.68;10.80;;;;;;;;;;4979103;28;97778;-78
2022/10/20 08:31:23;;;;;;;24.67;11.98;;;;;;;;;;4988281;28;98536;-78
2022/10/20 08:33:49;;;;;;;13.55;10.70;;;;;;;;;;4991984;28;100343;-78
2022/10/20 08:36:19;;;;;;;21.40;11.95;;;;;;;;;;4987693;28;99990;-78
2022/10/20 08:38:45;;;;;;;15.27;10.98;;;;;;;;;;4986960;28;100247;-79
2022/10/20 08:41:16;;;;;;;16.08;11.13;;;;;;;;;;4982164;28;100568;-78
2022/10/20 08:43:44;;;;;;;15.45;9.95;;;;;;;;;;4980315;28;99951;-77
2022/10/20 08:46:13;;;;;;;13.00;10.45;;;;;;;;;;4984729;28;100183;-77
2022/10/20 08:48:40;;;;;;;15.43;9.48;;;;;;;;;;4986363;28;100680;-77
2022/10/20 08:51:14;;;;;;;12.10;10.93;;;;;;;;;;4983049;28;99883;-77
2022/10/20 08:53:40;;;;;;;12.27;10.98;;;;;;;;;;4984814;28;98817;-78
2022/10/20 08:56:09;;;;;;;10.30;9.35;;;;;;;;;;4992348;28;98535;-77
2022/10/20 08:58:40;;;;;;;11.13;9.68;;;;;;;;;;4985169;28;100427;-77
2022/10/20 09:01:13;;;;;;;12.23;10.45;;;;;;;;;;4981532;28;100065;-78
2022/10/20 09:03:40;;;;;;;13.65;10.93;;;;;;;;;;4983080;28;100736;-78
2022/10/20 09:06:08;;;;;;;17.38;9.48;;;;;;;;;;4978503;28;100216;-78
2022/10/20 09:08:36;;;;;;;10.60;9.50;;;;;;;;;;4989465;28;99096;-77
2022/10/20 09:11:03;;;;;;;16.77;10.15;;;;;;;;;;4990017;28;99033;-77
2022/10/20 09:13:31;;;;;;;23.77;10.13;;;;;;;;;;4984237;28;100170;-76
2022/10/20 09:15:59;;;;;;;16.63;9.80;;;;;;;;;;4985832;28;98714;-77
2022/10/20 09:18:25;;;;;;;16.27;10.63;;;;;;;;;;4993732;28;99974;-78
2022/10/20 09:20:53;;;;;;;11.82;10.40;;;;;;;;;;4989004;28;99026;-77
2022/10/20 09:23:21;;;;;;;13.68;9.68;;;;;;;;;;4977146;28;99912;-77
2022/10/20 09:26:17;;;;;;;11.75;10.15;;;;;;;;;;4991026;28;100957;-77
2022/10/20 09:29:09;;;;;;;12.05;10.30;;;;;;;;;;4988733;28;99055;-77
2022/10/20 09:31:42;;;;;;;11.63;9.48;;;;;;;;;;4992831;28;100191;-78
2022/10/20 09:34:20;;;;;;;13.63;10.10;;;;;;;;;;4992744;28;100612;-78
2022/10/20 09:36:47;;;;;;;18.67;10.68;;;;;;;;;;4992189;28;98373;-77
2022/10/20 09:39:17;;;;;;;15.90;10.70;;;;;;;;;;4995783;28;100031;-76
2022/10/20 09:41:43;;;;;;;24.67;12.75;;;;;;;;;;4992805;28;98560;-77
2022/10/20 09:44:15;;;;;;;15.73;10.63;;;;;;;;;;4992419;28;100231;-77
2022/10/20 09:46:47;;;;;;;12.20;11.10;;;;;;;;;;4992617;28;100184;-75
2022/10/20 09:49:30;;;;;;;12.63;11.32;;;;;;;;;;4993163;28;98494;-77
2022/10/20 09:51:58;;;;;;;18.08;11.15;;;;;;;;;;4991150;28;100154;-77
2022/10/20 09:54:25;;;;;;;17.63;9.95;;;;;;;;;;4979912;28;100232;-77
2022/10/20 09:56:52;;;;;;;12.57;10.93;;;;;;;;;;4977384;28;98949;-76
2022/10/20 09:59:18;;;;;;;11.55;10.35;;;;;;;;;;4991991;28;100022;-76
2022/10/20 10:01:55;;;;;;;11.75;10.63;;;;;;;;;;4995298;28;100397;-76
2022/10/20 10:04:30;;;;;;;11.48;10.07;;;;;;;;;;4989700;28;99941;-76
2022/10/20 10:06:57;;;;;;;16.00;11.23;;;;;;;;;;4991566;28;100157;-75
2022/10/20 10:09:29;;;;;;;12.45;9.98;;;;;;;;;;4988301;28;97966;-76
2022/10/20 10:11:57;;;;;;;13.02;10.48;;;;;;;;;;4990133;28;99249;-77
2022/10/20 10:14:23;;;;;;;11.13;10.02;;;;;;;;;;4987705;28;100249;-77
2022/10/20 10:16:49;;;;;;;13.68;10.88;;;;;;;;;;4988791;28;99308;-77
2022/10/20 10:19:19;;;;;;;14.35;10.93;;;;;;;;;;4985753;28;100029;-77
2022/10/20 10:21:47;;;;;;;14.65;10.45;;;;;;;;;;4987768;28;99556;-78
2022/10/20 10:24:25;;;;;;;12.25;10.85;;;;;;;;;;4999537;28;98533;-77
2022/10/20 10:26:53;;;;;;;14.52;11.73;;;;;;;;;;4970854;28;100297;-78
2022/10/20 10:29:22;;;;;;;12.85;11.65;;;;;;;;;;5010741;28;98655;-77
2022/10/20 10:31:50;;;;;;;15.38;10.77;;;;;;;;;;5005175;28;100201;-78
2022/10/20 10:34:16;;;;;;;13.38;10.10;;;;;;;;;;5007273;28;98294;-78
2022/10/20 10:36:43;;;;;;;14.07;10.85;;;;;;;;;;4990203;28;98501;-77
2022/10/20 10:39:11;;;;;;;14.38;11.02;;;;;;;;;;5005709;28;100056;-78
2022/10/20 10:41:40;;;;;;;13.35;11.20;;;;;;;;;;4999741;28;100108;-78
2022/10/20 10:44:06;;;;;;;16.23;11.38;;;;;;;;;;5009486;28;98585;-78
2022/10/20 10:46:40;;;;;;;15.93;11.45;;;;;;;;;;4994029;28;100072;-77
2022/10/20 10:49:25;;;;;;;16.35;11.07;;;;;;;;;;4987304;28;98549;-77
2022/10/20 10:51:51;;;;;;;15.88;12.35;;;;;;;;;;4985450;28;99322;-77
2022/10/20 10:54:32;;;;;;;16.00;11.95;;;;;;;;;;4984363;28;100455;-77
2022/10/20 10:57:18;;;;;;;19.75;12.05;;;;;;;;;;4983828;28;99645;-75
2022/10/20 10:59:47;;;;;;;15.15;12.70;;;;;;;;;;4990482;28;100001;-75
2022/10/20 11:02:18;;;;;;;19.70;12.80;;;;;;;;;;4996297;28;100682;-76
2022/10/20 11:04:50;;;;;;;15.68;12.38;;;;;;;;;;4988752;28;98909;-76
2022/10/20 11:07:16;;;;;;;14.15;12.68;;;;;;;;;;4989353;28;100045;-76
2022/10/20 11:09:51;;;;;;;16.13;14.43;;;;;;;;;;4991180;28;100224;-76
2022/10/20 11:12:33;;;;;;;20.75;13.88;;;;;;;;;;4988093;28;100089;-76
2022/10/20 11:14:59;;;;;;;25.25;14.90;;;;;;;;;;4989590;28;100140;-73
2022/10/20 11:17:36;;;;;;;18.70;15.73;;;;;;;;;;4987404;28;98555;-75
2022/10/20 11:20:21;;;;;;;19.02;16.08;;;;;;;;;;4971202;28;100059;-74
2022/10/20 11:22:53;;;;;;;19.27;16.73;;;;;;;;;;4985059;28;100648;-75
2022/10/20 11:25:19;;;;;;;22.02;16.20;;;;;;;;;;4987530;28;97784;-76
2022/10/20 11:27:46;;;;;;;26.92;17.00;;;;;;;;;;4986600;28;99360;-76
2022/10/20 11:30:18;;;;;;;24.58;16.17;;;;;;;;;;4988133;28;100384;-76
2022/10/20 11:32:48;;;;;;;26.90;18.20;;;;;;;;;;4991288;28;99320;-77
2022/10/20 11:35:20;;;;;;;18.38;16.35;;;;;;;;;;4990048;28;100098;-78
2022/10/20 11:38:04;;;;;;;18.85;14.95;;;;;;;;;;4990302;28;98548;-76
2022/10/20 11:40:33;;;;;;;27.10;18.40;;;;;;;;;;4983595;28;100436;-77
2022/10/20 11:43:19;;;;;;;25.10;18.17;;;;;;;;;;4985307;28;100211;-77
2022/10/20 11:45:49;;;;;;;18.75;15.82;;;;;;;;;;4971096;28;98537;-77
2022/10/20 11:48:21;;;;;;;32.53;18.77;;;;;;;;;;4986059;28;100053;-77
2022/10/20 11:51:13;;;;;;;29.80;18.27;;;;;;;;;;4980658;28;99738;-77
2022/10/20 11:53:58;;;;;;;25.25;19.10;;;;;;;;;;4993390;28;98515;-76
2022/10/20 11:56:38;;;;;;;36.47;18.70;;;;;;;;;;4987773;28;100259;-77
2022/10/20 11:59:20;;;;;;;32.70;17.92;;;;;;;;;;4985501;28;100835;-76
2022/10/20 12:02:12;;;;;;;26.08;19.77;;;;;;;;;;4989291;28;100775;-77
2022/10/20 12:04:44;;;;;;;32.63;20.88;;;;;;;;;;4986964;28;100610;-77
2022/10/20 12:07:31;;;;;;;30.27;22.33;;;;;;;;;;4988290;28;99901;-76
2022/10/20 12:10:16;;;;;;;33.08;22.65;;;;;;;;;;4986298;28;100171;-77
2022/10/20 12:13:01;;;;;;;29.52;21.88;;;;;;;;;;4988714;28;100408;-76
2022/10/20 12:15:28;;;;;;;34.22;22.35;;;;;;;;;;4983201;28;98577;-76
2022/10/20 12:17:57;;;;;;;39.00;23.23;;;;;;;;;;4991202;28;99265;-77
2022/10/20 12:20:24;;;;;;;42.38;24.30;;;;;;;;;;4990560;28;98551;-76
2022/10/20 12:22:52;;;;;;;38.63;25.02;;;;;;;;;;4990088;28;100020;-76
2022/10/20 12:25:23;;;;;;;46.05;25.00;;;;;;;;;;4988863;28;100914;-76
2022/10/20 12:28:26;;;;;;;41.93;25.07;;;;;;;;;;4990109;28;98751;-76
2022/10/20 12:31:00;;;;;;;41.22;24.73;;;;;;;;;;4976080;28;99295;-74
2022/10/20 12:33:34;;;;;;;37.50;25.40;;;;;;;;;;4969363;28;99616;-75
2022/10/20 12:36:22;;;;;;;41.42;25.83;;;;;;;;;;4983671;28;99879;-77
2022/10/20 12:38:52;;;;;;;37.95;25.23;;;;;;;;;;4986716;28;99596;-77
2022/10/20 12:41:25;;;;;;;37.20;25.23;;;;;;;;;;4993153;28;100158;-76
2022/10/20 12:43:52;;;;;;;39.53;26.13;;;;;;;;;;4989144;28;100238;-75
2022/10/20 12:46:25;;;;;;;39.42;25.48;;;;;;;;;;4986875;28;100267;-76
2022/10/20 12:48:56;;;;;;;36.72;25.58;;;;;;;;;;4989816;28;98519;-75
2022/10/20 12:51:26;;;;;;;35.65;22.60;;;;;;;;;;4989647;28;100198;-74
2022/10/20 12:53:53;;;;;;;38.72;25.40;;;;;;;;;;4988673;28;99537;-74
2022/10/20 12:56:20;;;;;;;37.65;24.15;;;;;;;;;;4989343;28;98520;-75
2022/10/20 12:59:05;;;;;;;48.50;25.02;;;;;;;;;;4987720;28;100188;-75
2022/10/20 13:01:51;;;;;;;38.33;25.08;;;;;;;;;;4987825;28;99921;-74
2022/10/20 13:04:36;;;;;;;44.92;27.55;;;;;;;;;;4992613;28;98510;-76
2022/10/20 13:07:08;;;;;;;42.78;26.60;;;;;;;;;;4988405;28;100432;-77
2022/10/20 13:09:52;;;;;;;36.25;25.80;;;;;;;;;;4990294;28;97851;-78
2022/10/20 13:12:27;;;;;;;43.53;26.95;;;;;;;;;;4986446;28;99473;-77
2022/10/20 13:14:55;;;;;;;47.08;25.65;;;;;;;;;;4984064;28;100166;-76
2022/10/20 13:17:29;;;;;;;45.63;26.60;;;;;;;;;;4984957;28;99484;-76
2022/10/20 13:19:58;;;;;;;37.15;23.70;;;;;;;;;;4986895;28;100788;-77
2022/10/20 13:22:31;;;;;;;38.17;26.77;;;;;;;;;;4982085;28;100112;-77
2022/10/20 13:24:58;;;;;;;38.05;26.45;;;;;;;;;;4985322;28;99948;-76
2022/10/20 13:27:24;;;;;;;39.38;25.25;;;;;;;;;;4992309;28;99883;-76
2022/10/20 13:29:50;;;;;;;31.20;23.70;;;;;;;;;;4987808;28;98554;-77
2022/10/20 13:32:17;;;;;;;32.72;23.15;;;;;;;;;;4982445;28;99877;-77
2022/10/20 13:34:55;;;;;;;34.55;23.65;;;;;;;;;;4975053;28;99478;-77
2022/10/20 13:37:24;;;;;;;40.00;25.88;;;;;;;;;;4985276;28;100116;-77
2022/10/20 13:39:51;;;;;;;28.20;22.02;;;;;;;;;;4986529;28;100020;-76
2022/10/20 13:42:42;;;;;;;27.27;22.17;;;;;;;;;;4984945;28;101291;-76
2022/10/20 13:45:23;;;;;;;28.35;21.35;;;;;;;;;;4965720;28;98638;-77
2022/10/20 13:48:12;;;;;;;40.08;22.92;;;;;;;;;;4985020;28;99303;-76
2022/10/20 13:50:41;;;;;;;29.45;20.08;;;;;;;;;;4978242;28;100451;-77
2022/10/20 13:53:24;;;;;;;25.60;20.50;;;;;;;;;;4980234;28;100073;-78
2022/10/20 13:56:14;;;;;;;27.88;20.05;;;;;;;;;;4967729;28;100133;-75
2022/10/20 13:58:55;;;;;;;31.10;23.42;;;;;;;;;;4980828;28;98624;-78
2022/10/20 14:01:23;;;;;;;30.35;21.17;;;;;;;;;;5004530;28;99890;-75
2022/10/20 14:03:49;;;;;;;31.40;21.60;;;;;;;;;;4997588;28;99512;-77
2022/10/20 14:06:35;;;;;;;31.80;21.02;;;;;;;;;;4989107;28;99390;-78
2022/10/20 14:09:09;;;;;;;34.40;22.25;;;;;;;;;;4974063;28;99961;-78
2022/10/20 14:11:36;;;;;;;34.33;23.20;;;;;;;;;;4993279;28;100445;-78
2022/10/20 14:14:02;;;;;;;37.63;23.98;;;;;;;;;;4978845;28;100400;-78
2022/10/20 14:16:29;;;;;;;39.15;24.00;;;;;;;;;;4991961;28;100655;-78
2022/10/20 14:19:00;;;;;;;34.67;24.17;;;;;;;;;;4991219;28;98640;-78
2022/10/20 14:21:27;;;;;;;32.33;22.63;;;;;;;;;;4982167;28;99998;-78
2022/10/20 14:23:55;;;;;;;37.53;24.88;;;;;;;;;;4971602;28;100172;-78
2022/10/20 14:26:23;;;;;;;47.30;25.52;;;;;;;;;;4988891;28;97792;-77
2022/10/20 14:28:50;;;;;;;36.65;25.08;;;;;;;;;;4988735;28;99267;-78
2022/10/20 14:31:20;;;;;;;38.88;23.05;;;;;;;;;;4990071;28;100042;-78